Time;durP1;ratioP1;P1;durP2;ratioP2;P2;SDS_P1;SDS_P2;PMS_P1;PMS_P2;Temp;Humidity;BMP_temperature;BMP_pressure;BME280_temperature;BME280_humidity;BME280_pressure;Samples;Min_cycle;Max_cycle;Signal;HPM_P1;HPM_P2
2022/04/02 00:01:42;;;;;;;131.65;58.90;;;;;;;21.23;69.36;97992.97;4838079;29;20058;-66
2022/04/02 00:04:23;;;;;;;147.00;60.72;;;;;;;21.15;67.61;98005.84;4849401;29;20157;-66
2022/04/02 00:07:13;;;;;;;133.98;59.80;;;;;;;21.19;69.01;98002.03;4840856;29;20058;-67
2022/04/02 00:09:54;;;;;;;147.55;60.97;;;;;;;21.07;69.89;98014.34;4835484;29;20066;-66
2022/04/02 00:12:45;;;;;;;146.18;60.83;;;;;;;21.01;67.80;98015.66;4835402;29;20053;-66
2022/04/02 00:15:26;;;;;;;146.55;61.15;;;;;;;21.06;70.40;98010.06;4835329;29;20053;-66
2022/04/02 00:18:15;;;;;;;136.77;61.80;;;;;;;21.07;69.29;98014.34;4834953;29;20474;-66
2022/04/02 00:20:58;;;;;;;135.32;60.60;;;;;;;21.09;69.20;98016.81;4833440;29;20056;-66
2022/04/02 00:23:48;;;;;;;136.73;60.25;;;;;;;21.09;65.60;98017.66;4854081;29;20053;-66
2022/04/02 00:26:29;;;;;;;132.88;59.47;;;;;;;21.02;64.93;98016.50;4848474;29;20057;-66
2022/04/02 00:29:19;;;;;;;145.23;62.00;;;;;;;21.05;66.28;98021.50;4842718;29;20054;-66
2022/04/02 00:32:01;;;;;;;124.20;59.20;;;;;;;21.10;68.42;98029.78;4841744;29;20053;-66
2022/04/02 00:34:50;;;;;;;129.43;57.63;;;;;;;21.02;66.19;98030.44;4857026;29;20133;-66
2022/04/02 00:37:39;;;;;;;124.63;55.97;;;;;;;21.00;66.43;98032.34;4832540;29;20114;-66
2022/04/02 00:40:27;;;;;;;127.80;59.75;;;;;;;21.00;65.22;98034.97;4833388;29;20045;-66
2022/04/02 00:43:33;;;;;;;126.32;56.30;;;;;;;21.04;68.02;98024.25;4844115;29;20041;-66
2022/04/02 00:46:11;;;;;;;141.20;60.28;;;;;;;21.02;66.31;98021.75;4848804;29;20049;-66
2022/04/02 00:49:07;;;;;;;131.13;56.55;;;;;;;21.07;66.66;98034.47;4822503;29;20096;-67
2022/04/02 00:51:44;;;;;;;127.75;54.67;;;;;;;21.08;67.43;98020.41;4840601;29;20133;-66
2022/04/02 00:54:42;;;;;;;124.95;55.90;;;;;;;20.99;66.12;98025.44;4835036;29;20062;-65
2022/04/02 00:57:30;;;;;;;143.60;56.92;;;;;;;20.96;64.30;98022.25;4835160;29;20054;-66
2022/04/02 01:00:20;;;;;;;110.88;52.08;;;;;;;20.99;67.06;98028.06;4815161;29;20066;-66
2022/04/02 01:03:08;;;;;;;122.07;52.05;;;;;;;21.00;68.06;98023.66;4797241;29;20491;-67
2022/04/02 01:06:04;;;;;;;115.10;52.67;;;;;;;21.01;69.23;98031.38;4799316;29;20057;-66
2022/04/02 01:08:40;;;;;;;129.82;54.35;;;;;;;21.04;70.40;98029.47;4796925;29;20062;-65
2022/04/02 01:11:48;;;;;;;115.40;54.40;;;;;;;21.02;71.97;98038.28;4782219;29;20047;-65
2022/04/02 01:14:24;;;;;;;114.72;52.92;;;;;;;21.08;72.36;98041.34;4797425;29;20427;-65
2022/04/02 01:17:26;;;;;;;129.48;51.80;;;;;;;21.13;67.93;98049.69;4781658;29;20055;-65
2022/04/02 01:20:10;;;;;;;96.32;48.63;;;;;;;21.18;67.30;98048.34;4797957;29;20146;-66
2022/04/02 01:23:09;;;;;;;117.67;48.37;;;;;;;21.30;67.11;98051.75;4812940;29;20055;-65
2022/04/02 01:25:46;;;;;;;98.75;45.50;;;;;;;21.40;64.25;98052.63;4800243;29;20065;-65
2022/04/02 01:28:40;;;;;;;103.07;45.95;;;;;;;21.52;63.52;98053.41;4799966;29;20487;-66
2022/04/02 01:31:25;;;;;;;104.22;44.10;;;;;;;21.52;63.84;98069.97;4814613;29;20765;-66
2022/04/02 01:34:20;;;;;;;97.63;42.63;;;;;;;21.58;66.68;98073.84;4817291;29;20055;-65
2022/04/02 01:36:59;;;;;;;94.28;44.90;;;;;;;21.60;69.52;98070.13;4804341;29;20133;-67
2022/04/02 01:39:52;;;;;;;87.90;43.63;;;;;;;21.65;70.16;98081.06;4803583;29;20054;-66
2022/04/02 01:42:51;;;;;;;93.68;44.85;;;;;;;21.65;66.91;98078.44;4804077;29;20747;-66
2022/04/02 01:45:33;;;;;;;90.85;42.63;;;;;;;21.72;69.59;98082.19;4823792;29;20133;-65
2022/04/02 01:48:30;;;;;;;96.82;44.28;;;;;;;21.94;70.21;98088.25;4830557;29;20479;-66
2022/04/02 01:51:13;;;;;;;105.10;48.20;;;;;;;22.08;73.19;98095.78;4818383;29;20127;-66
2022/04/02 01:54:02;;;;;;;103.20;51.08;;;;;;;22.10;71.39;98099.13;4792692;29;20054;-65
2022/04/02 01:56:43;;;;;;;123.18;52.47;;;;;;;22.17;68.75;98105.50;4818243;29;20081;-66
2022/04/02 01:59:40;;;;;;;101.05;50.10;;;;;;;22.38;67.11;98103.63;4832417;29;20046;-65
2022/04/02 02:02:20;;;;;;;100.30;47.40;;;;;;;22.84;68.91;98115.34;4839483;29;20050;-66
2022/04/02 02:05:09;;;;;;;104.60;49.88;;;;;;;23.57;65.68;98127.94;4839594;29;20156;-66
2022/04/02 02:07:57;;;;;;;107.40;46.90;;;;;;;24.07;62.76;98132.09;4839999;29;20141;-66
2022/04/02 02:10:55;;;;;;;102.57;47.13;;;;;;;24.50;59.49;98136.81;4854413;29;20045;-66
2022/04/02 02:13:48;;;;;;;99.80;44.42;;;;;;;24.74;57.85;98145.00;4840807;29;20344;-66
2022/04/02 02:16:31;;;;;;;108.15;45.63;;;;;;;24.70;55.61;98149.72;4839341;29;20073;-66
2022/04/02 02:19:21;;;;;;;101.78;45.08;;;;;;;24.77;62.94;98153.41;4839254;29;20144;-67
2022/04/02 02:22:03;;;;;;;105.80;42.97;;;;;;;25.00;58.98;98153.84;4844881;29;20080;-67
2022/04/02 02:24:51;;;;;;;96.47;40.30;;;;;;;24.97;54.60;98159.44;4838671;29;20050;-67
2022/04/02 02:27:43;;;;;;;100.85;41.45;;;;;;;24.90;58.16;98162.78;4842676;29;20551;-67
2022/04/02 02:30:33;;;;;;;93.93;40.55;;;;;;;25.19;60.27;98176.63;4846938;29;20041;-67
2022/04/02 02:36:25;;;;;;;92.70;40.85;;;;;;;25.37;61.38;98176.63;4842483;29;20042;-67
2022/04/02 02:39:15;;;;;;;110.78;48.45;;;;;;;25.31;52.99;98180.66;4854890;29;20049;-66
2022/04/02 02:42:24;;;;;;;126.03;49.40;;;;;;;25.02;51.49;98198.53;4854423;29;20045;-66
2022/04/02 02:45:31;;;;;;;116.32;48.28;;;;;;;25.00;54.01;98201.28;4849924;29;20081;-67
2022/04/02 02:48:13;;;;;;;105.65;49.10;;;;;;;24.85;51.18;98215.91;4841136;29;20061;-67
2022/04/02 02:51:01;;;;;;;110.18;49.10;;;;;;;25.01;50.45;98212.66;4836066;29;20053;-67
2022/04/02 02:53:45;;;;;;;115.38;51.58;;;;;;;24.98;50.58;98218.25;4805667;29;20663;-67
2022/04/02 02:56:41;;;;;;;110.13;51.92;;;;;;;24.97;52.43;98219.22;4837363;29;20078;-66
2022/04/02 02:59:22;;;;;;;118.30;54.88;;;;;;;25.11;53.34;98218.72;4837471;29;20085;-66
2022/04/02 03:02:12;;;;;;;119.40;57.70;;;;;;;25.22;52.13;98230.88;4835374;29;20068;-67
2022/04/02 03:04:58;;;;;;;129.18;55.40;;;;;;;25.35;52.74;98237.44;4821337;29;20821;-69
2022/04/02 03:07:51;;;;;;;124.15;55.60;;;;;;;24.92;48.34;98239.91;4869057;29;20503;-67
2022/04/02 03:10:47;;;;;;;119.03;55.78;;;;;;;25.19;50.38;98250.44;4846324;29;20141;-65
2022/04/02 03:13:39;;;;;;;123.15;53.17;;;;;;;25.16;49.40;98256.00;4847317;29;20140;-66
2022/04/02 03:16:21;;;;;;;120.68;52.17;;;;;;;25.22;50.70;98258.06;4844980;29;20141;-65
2022/04/02 03:19:15;;;;;;;123.95;52.05;;;;;;;25.46;52.21;98257.50;4860554;29;20077;-67
2022/04/02 03:21:59;;;;;;;111.30;51.10;;;;;;;25.59;50.51;98257.16;4830786;29;20603;-66
2022/04/02 03:24:51;;;;;;;117.63;50.30;;;;;;;25.42;46.14;98262.22;4856749;29;20069;-66
2022/04/02 03:27:32;;;;;;;123.50;52.45;;;;;;;25.61;46.89;98269.22;4856023;29;20145;-66
2022/04/02 03:30:27;;;;;;;110.85;50.90;;;;;;;25.87;49.17;98274.53;4849905;29;20228;-66
2022/04/02 03:33:10;;;;;;;128.65;51.17;;;;;;;25.91;47.26;98273.25;4847756;29;20061;-68
2022/04/02 03:36:01;;;;;;;98.13;49.90;;;;;;;26.11;48.19;98272.09;4838085;29;20057;-68
2022/04/02 03:38:42;;;;;;;117.40;51.65;;;;;;;26.01;46.54;98278.47;4871402;29;20053;-67
2022/04/02 03:41:32;;;;;;;108.25;48.55;;;;;;;26.20;47.21;98287.00;4847833;29;20081;-68
2022/04/02 03:44:20;;;;;;;119.03;49.03;;;;;;;26.37;49.15;98288.00;4858234;29;20049;-68
2022/04/02 03:47:10;;;;;;;94.93;45.13;;;;;;;26.47;46.15;98294.00;4838004;29;20049;-68
2022/04/02 03:49:59;;;;;;;93.70;42.35;;;;;;;26.65;46.53;98286.03;4845781;29;20504;-68
2022/04/02 03:52:49;;;;;;;113.20;45.65;;;;;;;26.75;46.37;98299.09;4847179;29;20541;-68
2022/04/02 03:55:42;;;;;;;;;;;;;;;26.88;44.30;98300.34;4844517;29;20527;-68
2022/04/02 03:58:32;;;;;;;101.22;44.08;;;;;;;27.08;46.96;98297.47;4857538;29;19996;-68
2022/04/02 04:01:22;;;;;;;92.55;44.30;;;;;;;27.34;46.43;98303.53;4836387;29;20118;-67
2022/04/02 04:04:05;;;;;;;100.20;42.55;;;;;;;27.56;44.91;98307.41;4843054;29;20149;-68
2022/04/02 04:06:56;;;;;;;87.13;41.70;;;;;;;27.73;40.47;98304.63;4840801;29;20057;-66
2022/04/02 04:09:40;;;;;;;97.18;42.83;;;;;;;27.97;40.25;98311.78;4836783;29;20054;-66
2022/04/02 04:12:29;;;;;;;83.03;39.75;;;;;;;28.55;43.49;98311.59;4831829;29;20130;-67
2022/04/02 04:15:14;;;;;;;95.43;40.53;;;;;;;28.86;42.09;98318.84;4845389;29;20061;-67
2022/04/02 04:18:11;;;;;;;92.18;38.92;;;;;;;29.42;39.83;98320.47;4849232;29;20130;-67
2022/04/02 04:20:48;;;;;;;81.35;38.65;;;;;;;29.85;39.22;98316.38;4830598;29;20130;-67
2022/04/02 04:23:44;;;;;;;84.28;37.25;;;;;;;30.01;39.23;98324.25;4833243;29;20179;-66
2022/04/02 04:26:20;;;;;;;77.43;38.03;;;;;;;30.40;37.70;98331.28;4833005;29;20081;-67
2022/04/02 04:29:15;;;;;;;86.60;37.22;;;;;;;30.63;39.55;98332.06;4841746;29;20084;-67
2022/04/02 04:31:50;;;;;;;80.05;34.70;;;;;;;31.29;37.02;98332.97;4846873;29;20777;-67
2022/04/02 04:34:39;;;;;;;82.55;34.47;;;;;;;31.37;36.68;98340.88;4832090;29;20057;-68
2022/04/02 04:37:15;;;;;;;79.38;33.92;;;;;;;31.46;35.08;98337.09;4848203;29;20133;-67
2022/04/02 04:40:05;;;;;;;76.68;33.92;;;;;;;31.63;36.49;98335.06;4841914;29;20084;-68
2022/04/02 04:42:49;;;;;;;85.68;34.03;;;;;;;31.93;37.88;98335.78;4857471;29;20077;-68
2022/04/02 04:45:48;;;;;;;70.05;30.23;;;;;;;32.41;35.55;98333.41;4833672;29;20731;-67
2022/04/02 04:48:30;;;;;;;63.42;29.88;;;;;;;32.86;35.00;98340.91;4833927;29;20049;-68
2022/04/02 04:51:23;;;;;;;72.63;30.10;;;;;;;32.53;37.95;98345.16;4815556;29;20128;-69
2022/04/02 04:54:07;;;;;;;54.90;26.98;;;;;;;32.95;36.07;98339.75;4820485;29;20077;-67
2022/04/02 04:56:58;;;;;;;50.25;25.27;;;;;;;32.87;34.21;98339.06;4841269;29;20149;-65
2022/04/02 04:59:39;;;;;;;63.95;25.65;;;;;;;33.35;35.23;98332.78;4831048;29;20054;-68
2022/04/02 05:02:39;;;;;;;62.13;25.83;;;;;;;33.37;33.31;98337.91;4842245;29;20045;-67
2022/04/02 05:05:35;;;;;;;56.17;22.33;;;;;;;33.86;34.09;98343.03;4828048;29;20058;-68
2022/04/02 05:08:22;;;;;;;42.15;20.90;;;;;;;34.39;36.33;98330.56;4828998;29;20058;-68
2022/04/02 05:11:11;;;;;;;43.60;20.73;;;;;;;34.34;33.75;98343.72;4822884;29;20058;-68
2022/04/02 05:13:57;;;;;;;54.58;18.88;;;;;;;34.00;29.08;98342.03;4848194;29;20054;-68
2022/04/02 05:16:46;;;;;;;38.05;17.15;;;;;;;34.07;32.79;98352.75;4860793;29;20064;-67
2022/04/02 05:19:39;;;;;;;39.63;17.70;;;;;;;33.74;30.09;98348.16;4834081;29;20474;-66
2022/04/02 05:22:22;;;;;;;36.92;17.42;;;;;;;34.05;30.58;98346.75;4820321;29;20069;-69
2022/04/02 05:25:12;;;;;;;35.25;16.58;;;;;;;34.32;30.01;98348.47;4816370;29;20050;-67
2022/04/02 05:28:11;;;;;;;37.58;18.50;;;;;;;33.94;29.65;98352.69;4838187;29;20122;-67
2022/04/02 05:30:47;;;;;;;44.83;18.38;;;;;;;34.16;31.86;98341.63;4837559;29;20050;-69
2022/04/02 05:33:38;;;;;;;42.22;17.95;;;;;;;34.11;31.55;98345.94;4834701;29;20058;-67
2022/04/02 05:36:27;;;;;;;41.95;16.02;;;;;;;34.25;36.38;98341.44;4842319;29;20050;-68
2022/04/02 05:39:08;;;;;;;38.60;15.95;;;;;;;33.97;32.71;98341.59;4844378;29;20096;-66
2022/04/02 05:42:05;;;;;;;32.80;16.30;;;;;;;34.32;39.03;98337.78;4834017;29;20367;-69
2022/04/02 05:44:46;;;;;;;42.28;15.48;;;;;;;33.77;36.27;98336.22;4832340;29;20050;-68
2022/04/02 05:47:47;;;;;;;34.05;15.52;;;;;;;34.12;33.11;98347.59;4833377;29;20054;-67
2022/04/02 05:50:28;;;;;;;34.65;14.70;;;;;;;34.12;33.23;98339.56;4825868;29;20054;-67
2022/04/02 05:53:19;;;;;;;34.15;15.25;;;;;;;33.84;33.34;98342.41;4831677;29;20050;-68
2022/04/02 05:56:15;;;;;;;29.08;12.80;;;;;;;34.12;32.99;98342.25;4842108;29;20057;-68
2022/04/02 05:59:05;;;;;;;41.45;13.90;;;;;;;34.29;31.48;98340.84;4828996;29;20042;-68
2022/04/02 06:01:53;;;;;;;37.30;13.45;;;;;;;34.44;33.52;98335.28;4822091;29;20053;-68
2022/04/02 06:04:43;;;;;;;34.58;13.45;;;;;;;34.63;32.13;98342.50;4839648;29;20053;-68
2022/04/02 06:07:24;;;;;;;34.92;13.18;;;;;;;35.12;33.13;98338.50;4833844;29;20056;-68
2022/04/02 06:10:15;;;;;;;37.42;12.93;;;;;;;34.53;32.33;98337.56;4846071;29;20057;-67
2022/04/02 06:12:56;;;;;;;43.70;13.43;;;;;;;34.59;32.14;98332.38;4839551;29;20054;-67
2022/04/02 06:15:46;;;;;;;26.52;11.68;;;;;;;34.67;31.60;98327.66;4834829;29;20114;-66
2022/04/02 06:18:27;;;;;;;35.42;11.40;;;;;;;34.81;31.57;98317.75;4840558;29;20063;-66
2022/04/02 06:21:17;;;;;;;26.38;11.18;;;;;;;34.79;29.88;98318.00;4835197;29;20081;-67
2022/04/02 06:24:06;;;;;;;23.27;10.13;;;;;;;34.87;34.68;98316.94;4828624;29;20550;-68
2022/04/02 06:26:56;;;;;;;23.70;10.93;;;;;;;35.32;37.84;98308.97;4833899;29;20064;-69
2022/04/02 06:29:37;;;;;;;30.40;10.85;;;;;;;34.85;32.25;98313.63;4835538;29;20113;-65
2022/04/02 06:32:27;;;;;;;26.85;12.05;;;;;;;35.19;32.87;98310.66;4842393;29;20058;-70
2022/04/02 06:35:10;;;;;;;27.52;9.88;;;;;;;34.91;30.61;98308.25;4819979;29;20050;-70
2022/04/02 06:38:01;;;;;;;22.40;9.25;;;;;;;35.15;31.65;98303.25;4826387;29;20054;-69
2022/04/02 06:40:43;;;;;;;;;;;;;;;34.95;29.66;98303.31;4838985;29;20046;-70
2022/04/02 06:43:32;;;;;;;21.90;8.43;;;;;;;35.12;31.36;98299.13;4825017;29;19993;-71
2022/04/02 06:46:17;;;;;;;27.77;8.65;;;;;;;35.17;28.89;98302.00;4834410;29;20049;-69
2022/04/02 06:49:07;;;;;;;18.20;7.93;;;;;;;35.17;29.55;98301.19;4829121;29;20049;-69
2022/04/02 06:51:48;;;;;;;18.13;7.70;;;;;;;35.27;31.31;98291.69;4839185;29;20139;-72
2022/04/02 06:54:38;;;;;;;18.92;6.18;;;;;;;35.35;29.97;98287.94;4842127;29;20142;-68
2022/04/02 06:57:23;;;;;;;16.50;6.68;;;;;;;35.16;26.52;98296.84;4840981;29;20113;-68
2022/04/02 07:00:21;;;;;;;31.45;6.15;;;;;;;35.22;28.49;98294.16;4829614;29;20149;-69
2022/04/02 07:02:56;;;;;;;16.05;6.38;;;;;;;35.40;29.05;98281.94;4831953;29;20367;-67
2022/04/02 07:05:44;;;;;;;24.90;6.35;;;;;;;35.40;28.79;98274.72;4834660;29;20038;-70
2022/04/02 07:08:26;;;;;;;21.88;7.05;;;;;;;35.66;29.33;98279.94;4839001;29;20550;-71
2022/04/02 07:11:21;;;;;;;20.75;6.93;;;;;;;35.44;29.54;98273.22;4815132;29;20370;-69
2022/04/02 07:13:56;;;;;;;24.85;7.70;;;;;;;35.11;25.78;98270.72;4837995;29;20054;-69
2022/04/02 07:16:44;;;;;;;27.08;6.38;;;;;;;34.95;26.18;98276.53;4835596;29;20049;-68
2022/04/02 07:19:28;;;;;;;21.95;6.22;;;;;;;35.19;27.75;98273.16;4834890;29;20049;-68
2022/04/02 07:22:18;;;;;;;19.20;5.35;;;;;;;35.24;24.82;98265.31;4834736;29;20057;-69
2022/04/02 07:25:04;;;;;;;23.75;4.53;;;;;;;35.44;23.32;98264.41;4835543;29;20054;-69
2022/04/02 07:28:03;;;;;;;16.10;5.13;;;;;;;35.47;24.13;98259.41;4833209;29;20042;-68
2022/04/02 07:30:39;;;;;;;15.13;5.13;;;;;;;35.16;21.61;98265.53;4833568;29;20050;-70
2022/04/02 07:33:38;;;;;;;15.55;4.78;;;;;;;35.08;22.38;98255.06;4852765;29;20050;-71
2022/04/02 07:36:55;;;;;;;17.73;5.15;;;;;;;35.33;24.33;98251.66;4834273;29;20077;-68
2022/04/02 07:40:08;;;;;;;16.98;5.55;;;;;;;35.39;25.04;98251.63;4838650;29;20057;-70
2022/04/02 07:43:02;;;;;;;25.10;5.35;;;;;;;35.30;24.27;98251.06;4838061;29;20462;-70
2022/04/02 07:46:04;;;;;;;15.35;5.10;;;;;;;35.49;23.20;98243.13;4833726;29;20092;-70
2022/04/02 07:48:48;;;;;;;13.98;5.38;;;;;;;35.45;23.31;98244.56;4835347;29;20782;-67
2022/04/02 07:51:42;;;;;;;23.23;5.25;;;;;;;35.45;25.04;98245.41;4822331;29;20438;-69
2022/04/02 07:54:34;;;;;;;17.95;5.65;;;;;;;35.37;24.24;98226.06;4834215;29;20061;-66
2022/04/02 07:57:16;;;;;;;18.75;5.13;;;;;;;35.34;23.13;98226.53;4838728;29;20057;-67
2022/04/02 08:00:13;;;;;;;10.98;4.97;;;;;;;35.25;23.25;98224.09;4832828;29;20069;-69
2022/04/02 08:02:50;;;;;;;8.27;4.50;;;;;;;35.45;24.72;98207.06;4832074;29;20076;-67
2022/04/02 08:05:40;;;;;;;12.30;4.53;;;;;;;35.48;24.10;98206.63;4835728;29;20057;-67
2022/04/02 08:08:22;;;;;;;11.55;4.90;;;;;;;35.38;23.81;98204.41;4833440;29;20156;-67
2022/04/02 08:11:11;;;;;;;16.58;4.57;;;;;;;35.34;23.57;98210.44;4853552;29;20077;-68
2022/04/02 08:13:54;;;;;;;9.63;5.22;;;;;;;35.24;24.29;98205.53;4839454;29;20054;-67
2022/04/02 08:16:50;;;;;;;14.13;5.20;;;;;;;35.28;23.38;98198.75;4840743;29;20064;-68
2022/04/02 08:19:26;;;;;;;14.73;4.72;;;;;;;35.30;24.62;98193.97;4841010;29;20157;-67
2022/04/02 08:22:16;;;;;;;24.90;5.60;;;;;;;35.23;23.23;98187.81;4837623;29;20153;-66
2022/04/02 08:24:59;;;;;;;20.67;6.00;;;;;;;35.36;25.17;98178.91;4828460;29;20057;-67
2022/04/02 08:28:12;;;;;;;30.17;5.78;;;;;;;35.38;23.41;98184.84;4856516;29;20054;-67
2022/04/02 08:31:10;;;;;;;16.88;5.05;;;;;;;35.27;22.96;98184.53;4836449;29;20081;-67
2022/04/02 08:34:18;;;;;;;13.07;5.05;;;;;;;35.08;22.73;98179.22;4805589;29;20448;-64
2022/04/02 08:37:12;;;;;;;18.30;6.05;;;;;;;35.06;23.37;98171.41;4839041;29;20081;-66
2022/04/02 08:40:07;;;;;;;12.80;4.80;;;;;;;35.08;23.06;98163.97;4506817;29;10000625;-70
2022/04/02 08:43:00;;;;;;;14.27;4.70;;;;;;;34.96;24.96;98160.34;4852036;29;20063;-67
2022/04/02 08:45:57;;;;;;;13.02;4.57;;;;;;;34.90;25.05;98155.84;4853158;29;20045;-66
2022/04/02 08:49:03;;;;;;;12.15;5.35;;;;;;;35.07;24.32;98151.63;4845009;29;20383;-67
2022/04/02 08:52:20;;;;;;;19.63;5.47;;;;;;;34.82;23.87;98142.69;4847246;29;20061;-66
2022/04/02 08:55:27;;;;;;;12.57;5.05;;;;;;;34.89;25.41;98135.44;4834007;29;20078;-65
2022/04/02 08:58:53;;;;;;;14.88;4.45;;;;;;;34.88;24.34;98142.66;4842293;29;20461;-66
2022/04/02 09:01:57;;;;;;;18.35;4.22;;;;;;;34.81;24.19;98135.69;4835149;29;20503;-66
2022/04/02 09:05:10;;;;;;;13.48;4.22;;;;;;;34.69;20.71;98129.34;4838622;29;20463;-67
2022/04/02 09:08:14;;;;;;;22.23;5.68;;;;;;;34.79;23.01;98121.72;4853850;29;20054;-66
2022/04/02 09:11:31;;;;;;;17.80;4.28;;;;;;;34.68;22.64;98114.31;4839937;29;20041;-67
2022/04/02 09:14:32;;;;;;;12.88;4.60;;;;;;;34.73;24.08;98110.00;4827251;29;20062;-68
2022/04/02 09:17:37;;;;;;;17.35;4.32;;;;;;;34.86;24.81;98101.09;4833882;29;20046;-66
2022/04/02 09:21:05;;;;;;;10.38;4.00;;;;;;;34.88;25.24;98102.50;4820627;29;20041;-66
2022/04/02 09:23:44;;;;;;;10.52;4.32;;;;;;;34.81;22.89;98092.84;4830498;29;20053;-67
2022/04/02 09:27:03;;;;;;;13.40;4.20;;;;;;;34.76;22.76;98095.38;4835907;29;20057;-67
2022/04/02 09:30:03;;;;;;;13.77;3.90;;;;;;;34.87;22.50;98097.38;4818004;29;20057;-67
2022/04/02 09:33:10;;;;;;;10.70;4.15;;;;;;;34.72;21.92;98094.94;4846985;29;20056;-65
2022/04/02 09:36:01;;;;;;;13.50;4.30;;;;;;;34.70;23.15;98083.63;4843155;29;20057;-66
2022/04/02 09:39:12;;;;;;;17.38;4.45;;;;;;;34.66;23.21;98089.63;4834049;29;20390;-69
2022/04/02 09:42:00;;;;;;;13.75;4.00;;;;;;;34.69;23.42;98076.63;4833786;29;20065;-69
2022/04/02 09:45:08;;;;;;;15.98;4.32;;;;;;;34.64;23.70;98072.97;4837388;29;20041;-65
2022/04/02 09:47:53;;;;;;;9.15;4.38;;;;;;;34.59;24.13;98075.44;4833874;29;20085;-68
2022/04/02 09:50:44;;;;;;;15.43;5.25;;;;;;;34.68;21.58;98076.84;4840724;29;20054;-67
2022/04/02 09:53:34;;;;;;;11.25;4.38;;;;;;;34.49;23.33;98067.88;4835415;29;20141;-65
2022/04/02 09:56:28;;;;;;;17.70;4.10;;;;;;;34.53;23.29;98059.22;4838255;29;20091;-64
2022/04/02 09:59:51;;;;;;;12.60;4.30;;;;;;;34.46;23.81;98054.94;4837701;29;20065;-65
2022/04/02 10:03:08;;;;;;;8.32;4.30;;;;;;;34.46;22.73;98055.75;4818306;29;20090;-66
2022/04/02 10:05:50;;;;;;;15.63;5.25;;;;;;;34.37;27.07;98043.66;4840922;29;20054;-62
2022/04/02 10:09:00;;;;;;;12.07;4.07;;;;;;;34.35;22.96;98043.03;4844035;29;20057;-64
2022/04/02 10:11:54;;;;;;;16.50;4.30;;;;;;;34.43;24.54;98040.13;4841628;29;20053;-63
2022/04/02 10:14:51;;;;;;;10.45;5.13;;;;;;;34.27;24.00;98037.13;4842513;29;20141;-62
2022/04/02 10:17:39;;;;;;;15.30;5.95;;;;;;;34.31;23.90;98036.50;4838862;29;20054;-62
2022/04/02 10:20:29;;;;;;;21.25;6.78;;;;;;;34.34;23.12;98040.56;4838352;29;20431;-65
2022/04/02 10:23:23;;;;;;;10.25;4.93;;;;;;;34.24;23.13;98038.38;4831556;29;20061;-64
2022/04/02 10:26:26;;;;;;;12.02;4.40;;;;;;;34.12;25.14;98029.31;4843171;29;20045;-61
2022/04/02 10:29:27;;;;;;;;;;;;;;;34.00;24.53;98031.84;4840992;29;20064;-63
2022/04/02 10:32:39;;;;;;;16.05;4.82;;;;;;;34.05;22.59;98034.72;4846301;29;19957;-62
2022/04/02 10:35:27;;;;;;;16.25;4.75;;;;;;;33.89;23.07;98024.47;4843400;29;20041;-62
2022/04/02 10:38:25;;;;;;;15.15;5.60;;;;;;;33.94;23.77;98021.97;4840106;29;20148;-62
2022/04/02 10:41:13;;;;;;;24.00;5.18;;;;;;;33.95;24.04;98020.13;4843023;29;20124;-63
2022/04/02 10:44:16;;;;;;;14.77;4.47;;;;;;;33.68;26.54;98006.84;4839491;29;20068;-63
2022/04/02 10:47:02;;;;;;;16.42;4.13;;;;;;;33.64;26.65;98007.44;4836139;29;20046;-62
2022/04/02 10:49:55;;;;;;;9.27;3.50;;;;;;;33.66;25.49;97998.19;4838376;29;20129;-64
2022/04/02 10:52:38;;;;;;;12.90;4.43;;;;;;;33.48;25.90;98000.69;4837523;29;20049;-64
2022/04/02 10:55:30;;;;;;;15.63;4.32;;;;;;;33.62;24.30;97996.97;4822078;29;20050;-63
2022/04/02 10:58:13;;;;;;;10.13;3.88;;;;;;;33.63;26.23;97998.59;4827806;29;20757;-65
2022/04/02 11:01:11;;;;;;;14.60;3.65;;;;;;;33.75;23.82;97996.97;4827599;29;20050;-64
2022/04/02 11:03:56;;;;;;;15.95;4.38;;;;;;;33.47;26.04;97983.03;4842379;29;20152;-64
2022/04/02 11:06:49;;;;;;;14.05;4.35;;;;;;;33.46;24.83;97980.56;4841520;29;20064;-64
2022/04/02 11:09:41;;;;;;;14.27;4.30;;;;;;;33.83;23.02;97984.41;4842862;29;20374;-64
2022/04/02 11:12:29;;;;;;;12.80;4.38;;;;;;;33.54;25.04;97973.13;4839878;29;20936;-65
2022/04/02 11:15:28;;;;;;;13.88;4.07;;;;;;;33.56;24.25;97970.25;4836851;29;20470;-65
2022/04/02 11:18:20;;;;;;;21.92;5.50;;;;;;;33.67;24.30;97970.44;4835375;29;20132;-65
2022/04/02 11:21:11;;;;;;;16.13;4.65;;;;;;;33.60;22.78;97966.16;4843432;29;20054;-65
2022/04/02 11:24:05;;;;;;;15.25;4.20;;;;;;;33.59;25.03;97965.34;4835001;29;20529;-64
2022/04/02 11:26:56;;;;;;;10.80;4.35;;;;;;;33.62;23.04;97975.59;4838092;29;20062;-63
2022/04/02 11:29:47;;;;;;;15.52;4.07;;;;;;;33.77;23.43;97964.66;4839276;29;20050;-64
2022/04/02 11:32:44;;;;;;;13.52;4.13;;;;;;;33.64;23.74;97962.84;4164485;29;10000679;-64
2022/04/02 11:35:26;;;;;;;14.07;3.80;;;;;;;33.43;25.67;97949.75;4835884;29;20534;-64
2022/04/02 11:38:27;;;;;;;13.80;4.40;;;;;;;33.43;23.84;97955.09;4833153;29;20058;-63
2022/04/02 11:41:27;;;;;;;18.63;4.13;;;;;;;33.42;24.76;97948.94;4837693;29;20342;-64
2022/04/02 11:44:21;;;;;;;11.32;3.95;;;;;;;33.23;26.57;97946.28;4830328;29;20046;-63
2022/04/02 11:47:11;;;;;;;15.15;4.72;;;;;;;33.11;25.38;97950.59;4837991;29;20057;-63
2022/04/02 11:50:08;;;;;;;12.77;4.55;;;;;;;32.97;26.33;97945.25;4838149;29;20057;-62
2022/04/02 11:53:00;;;;;;;13.98;4.10;;;;;;;33.35;24.54;97953.47;4836216;29;20713;-63
2022/04/02 11:55:50;;;;;;;12.93;3.95;;;;;;;33.16;27.46;97932.91;4841953;29;20053;-63
2022/04/02 11:58:48;;;;;;;17.63;4.55;;;;;;;33.02;25.86;97940.13;4840029;29;20037;-63
2022/04/02 12:01:49;;;;;;;18.48;5.45;;;;;;;32.94;26.26;97935.00;4823419;29;20054;-63
2022/04/02 12:04:38;;;;;;;24.20;5.20;;;;;;;32.81;27.47;97940.31;4823760;29;20058;-64
2022/04/02 12:07:21;;;;;;;15.43;4.53;;;;;;;32.70;26.91;97942.81;4819985;29;20060;-66
2022/04/02 12:10:11;;;;;;;12.65;4.57;;;;;;;32.64;26.76;97942.56;4821925;29;20370;-66
2022/04/02 12:13:04;;;;;;;15.70;6.00;;;;;;;32.52;28.21;97933.50;4808741;29;20053;-62
2022/04/02 12:16:16;;;;;;;20.85;5.28;;;;;;;32.52;28.05;97936.19;4815752;29;20066;-62
2022/04/02 12:19:17;;;;;;;13.85;4.68;;;;;;;32.33;30.11;97939.63;4816701;29;20050;-65
2022/04/02 12:21:53;;;;;;;19.92;5.20;;;;;;;32.35;29.27;97934.94;4492249;29;10000359;-62
2022/04/02 12:24:47;;;;;;;15.80;4.82;;;;;;;32.19;29.31;97930.78;4819891;29;20054;-63
2022/04/02 12:27:40;;;;;;;15.52;5.20;;;;;;;32.27;27.38;97935.94;4820888;29;20042;-63
2022/04/02 12:30:23;;;;;;;16.25;5.68;;;;;;;32.03;30.73;97941.78;4810595;29;20078;-63
2022/04/02 12:33:15;;;;;;;16.20;4.72;;;;;;;31.97;27.96;97937.25;4821293;29;20098;-62
2022/04/02 12:36:08;;;;;;;13.70;4.22;;;;;;;31.97;28.82;97939.09;4813489;29;20089;-63
2022/04/02 12:39:16;;;;;;;18.20;5.05;;;;;;;31.72;30.26;97933.47;4818080;29;20074;-62
2022/04/02 12:42:04;;;;;;;14.93;4.93;;;;;;;31.61;31.17;97944.66;4820270;29;20080;-62
2022/04/02 12:44:47;;;;;;;19.98;5.20;;;;;;;31.59;31.61;97944.03;4805053;29;20768;-64
2022/04/02 12:47:36;;;;;;;18.10;4.65;;;;;;;31.44;31.18;97938.84;4819896;29;20062;-63
2022/04/02 12:50:22;;;;;;;22.93;5.43;;;;;;;31.36;30.56;97949.66;4814510;29;20161;-65
2022/04/02 12:53:11;;;;;;;19.60;5.55;;;;;;;31.19;31.47;97943.81;4807871;29;20300;-65
2022/04/02 12:56:01;;;;;;;16.27;5.88;;;;;;;31.10;31.62;97936.97;4823955;29;20122;-65
2022/04/02 12:58:45;;;;;;;32.25;7.53;;;;;;;30.93;32.37;97946.25;4819126;29;20587;-65
2022/04/02 13:01:42;;;;;;;22.98;6.20;;;;;;;31.12;31.55;97953.59;4839949;29;20053;-66
2022/04/02 13:04:31;;;;;;;29.02;7.35;;;;;;;30.87;32.95;97939.03;4841298;29;20053;-66
2022/04/02 13:07:27;;;;;;;20.60;6.50;;;;;;;30.69;34.88;97948.28;4836817;29;20752;-65
2022/04/02 13:10:13;;;;;;;26.45;6.90;;;;;;;30.52;33.77;97946.09;4820210;29;20501;-67
2022/04/02 13:13:11;;;;;;;22.20;8.15;;;;;;;30.34;36.33;97947.31;4826782;29;20064;-65